createdAt,value
2022-08-27T00:04:16.978Z,21.65
2022-08-27T00:14:23.603Z,21.64
2022-08-27T00:24:29.985Z,21.47
2022-08-27T00:34:37.284Z,21.53
2022-08-27T00:44:43.782Z,21.48
2022-08-27T00:54:52.023Z,21.39
2022-08-27T01:05:06.408Z,21.32
2022-08-27T01:15:19.993Z,21.41
2022-08-27T01:25:26.808Z,21.27
2022-08-27T01:35:34.300Z,21.00
2022-08-27T01:45:50.904Z,21.18
2022-08-27T01:55:58.288Z,21.08
2022-08-27T02:06:07.538Z,20.99
2022-08-27T02:16:14.881Z,20.93
2022-08-27T02:26:21.225Z,20.86
2022-08-27T02:36:27.598Z,20.89
2022-08-27T02:46:33.975Z,20.76
2022-08-27T02:56:40.671Z,20.94
2022-08-27T03:06:48.375Z,20.93
2022-08-27T03:16:54.740Z,20.91
2022-08-27T03:27:01.145Z,20.90
2022-08-27T03:37:07.488Z,20.80
2022-08-27T03:47:13.934Z,20.81
2022-08-27T03:57:20.289Z,20.72
2022-08-27T04:07:26.628Z,20.75
2022-08-27T04:17:33.379Z,20.84
2022-08-27T04:27:40.027Z,20.78
2022-08-27T04:37:46.403Z,20.85
2022-08-27T04:47:52.750Z,21.02
2022-08-27T04:57:59.635Z,21.08
2022-08-27T05:08:07.533Z,21.21
2022-08-27T05:18:14.612Z,21.26
2022-08-27T05:28:27.903Z,21.49
2022-08-27T05:38:35.631Z,21.85
2022-08-27T05:48:42.960Z,22.66
2022-08-27T05:59:08.940Z,23.08
2022-08-27T06:09:19.483Z,24.23
2022-08-27T06:19:25.783Z,24.63
2022-08-27T06:29:32.167Z,24.55
2022-08-27T06:39:40.595Z,24.06
2022-08-27T06:49:47.020Z,25.31
2022-08-27T06:59:53.316Z,25.16
2022-08-27T07:10:00.263Z,24.85
2022-08-27T07:20:07.387Z,25.55
2022-08-27T07:30:14.826Z,26.28
2022-08-27T07:40:21.469Z,26.87
2022-08-27T07:50:27.952Z,26.91
2022-08-27T08:00:35.071Z,27.58
2022-08-27T08:10:44.706Z,27.98
2022-08-27T08:20:58.214Z,27.72
2022-08-27T08:31:06.290Z,28.67
2022-08-27T08:41:27.762Z,29.56
2022-08-27T08:51:42.278Z,30.41
2022-08-27T09:01:50.873Z,29.95
2022-08-27T09:12:02.782Z,31.59
2022-08-27T09:22:44.513Z,31.35
2022-08-27T09:32:57.507Z,31.26
2022-08-27T09:43:23.526Z,32.09
2022-08-27T09:53:34.114Z,31.54
2022-08-27T10:03:40.523Z,30.44
2022-08-27T10:13:55.753Z,29.81
2022-08-27T10:24:33.502Z,31.46
2022-08-27T10:34:42.680Z,31.26
2022-08-27T10:45:30.958Z,32.64
2022-08-27T10:55:53.702Z,32.80
2022-08-27T11:06:03.939Z,32.13
2022-08-27T11:16:20.463Z,31.95
2022-08-27T11:26:26.754Z,33.00
2022-08-27T11:36:45.023Z,33.19
2022-08-27T11:47:09.656Z,34.26
2022-08-27T11:57:31.636Z,34.75
2022-08-27T12:07:41.683Z,33.85
2022-08-27T12:18:22.509Z,33.90
2022-08-27T12:28:29.541Z,33.85
2022-08-27T12:38:54.752Z,33.09
2022-08-27T12:49:12.765Z,32.00
2022-08-27T12:59:43.315Z,32.63
2022-08-27T13:09:49.638Z,32.32
2022-08-27T13:20:01.005Z,30.63
2022-08-27T13:30:09.877Z,29.95
2022-08-27T13:40:34.213Z,29.18
2022-08-27T13:50:49.414Z,28.93
2022-08-27T14:00:56.983Z,28.89
2022-08-27T14:11:09.193Z,28.81
2022-08-27T14:21:15.539Z,28.75
2022-08-27T14:31:23.720Z,28.32
2022-08-27T14:41:30.093Z,28.01
2022-08-27T14:51:42.094Z,28.26
2022-08-27T15:01:48.646Z,28.59
2022-08-27T15:11:55.512Z,28.44
2022-08-27T15:22:06.885Z,28.25
2022-08-27T15:32:29.756Z,28.05
2022-08-27T15:42:36.086Z,28.15
2022-08-27T15:52:42.938Z,27.85
2022-08-27T16:02:49.870Z,27.83
2022-08-27T16:12:56.250Z,27.59
2022-08-27T16:23:02.721Z,27.67
2022-08-27T16:33:10.902Z,27.69
2022-08-27T16:43:22.012Z,27.34
2022-08-27T16:53:28.623Z,26.92
2022-08-27T17:04:07.019Z,26.89
2022-08-27T17:14:11.919Z,26.75
2022-08-27T17:24:19.025Z,26.47
2022-08-27T17:34:26.724Z,26.40
2022-08-27T17:44:36.221Z,26.21
2022-08-27T17:54:45.990Z,26.14
2022-08-27T18:04:52.643Z,25.95
2022-08-27T18:15:14.522Z,25.85
2022-08-27T18:25:24.063Z,25.77
2022-08-27T18:35:32.882Z,25.48
2022-08-27T18:45:40.600Z,25.46
2022-08-27T18:55:47.613Z,25.35
2022-08-27T19:05:54.951Z,25.20
2022-08-27T19:16:05.419Z,25.21
2022-08-27T19:26:20.747Z,23.38
2022-08-27T19:36:26.045Z,23.95
2022-08-27T19:46:36.869Z,23.32
2022-08-27T19:56:43.270Z,23.64
2022-08-27T20:06:50.142Z,23.54
2022-08-27T20:16:56.495Z,23.66
2022-08-27T20:27:02.967Z,23.93
2022-08-27T20:37:09.358Z,24.05
2022-08-27T20:47:17.343Z,24.07
2022-08-27T20:57:23.687Z,24.07
2022-08-27T21:07:29.978Z,23.98
2022-08-27T21:17:36.280Z,23.88
2022-08-27T21:27:42.992Z,23.79
2022-08-27T21:37:49.358Z,23.66
2022-08-27T21:47:56.101Z,23.57
2022-08-27T21:58:02.459Z,23.47
2022-08-27T22:08:09.070Z,23.42
2022-08-27T22:18:15.861Z,23.40
2022-08-27T22:28:22.418Z,23.25
2022-08-27T22:38:28.831Z,22.94
2022-08-27T22:48:35.186Z,22.95
2022-08-27T22:58:45.903Z,22.80
2022-08-27T23:08:52.727Z,22.74
2022-08-27T23:18:59.111Z,22.77
2022-08-27T23:29:06.488Z,22.66
2022-08-27T23:39:12.946Z,22.29
2022-08-27T23:49:19.251Z,22.24
2022-08-27T23:59:29.917Z,22.49
